createdAt,value
2019-02-21T00:01:13.349Z,5.30
2019-02-21T00:03:44.003Z,5.62
2019-02-21T00:06:15.618Z,5.42
2019-02-21T00:08:46.286Z,5.65
2019-02-21T00:11:17.061Z,5.25
2019-02-21T00:13:50.367Z,5.53
2019-02-21T00:16:21.038Z,5.72
2019-02-21T00:18:51.766Z,5.42
2019-02-21T00:21:22.347Z,4.92
2019-02-21T00:23:52.867Z,5.12
2019-02-21T00:26:23.418Z,5.78
2019-02-21T00:28:53.939Z,5.20
2019-02-21T00:31:24.676Z,5.40
2019-02-21T00:33:58.278Z,6.00
2019-02-21T00:36:32.498Z,6.00
2019-02-21T00:39:06.808Z,5.47
2019-02-21T00:41:37.867Z,5.28
2019-02-21T00:44:09.790Z,4.83
2019-02-21T00:46:45.253Z,4.58
2019-02-21T00:49:21.928Z,4.92
2019-02-21T00:51:54.237Z,5.25
2019-02-21T00:56:54.478Z,4.78
2019-02-21T00:59:40.220Z,5.25
2019-02-21T01:02:38.496Z,5.35
2019-02-21T01:05:18.288Z,4.97
2019-02-21T01:07:51.416Z,5.58
2019-02-21T01:10:23.287Z,4.45
2019-02-21T01:12:53.991Z,4.87
2019-02-21T01:15:24.612Z,4.80
2019-02-21T01:18:04.353Z,4.83
2019-02-21T01:20:46.976Z,5.05
2019-02-21T01:23:23.297Z,5.20
2019-02-21T01:25:57.176Z,5.87
2019-02-21T01:28:27.789Z,5.17
2019-02-21T01:30:58.497Z,5.37
2019-02-21T01:33:32.278Z,4.83
2019-02-21T01:36:04.168Z,4.70
2019-02-21T01:38:35.267Z,4.92
2019-02-21T01:41:06.779Z,5.78
2019-02-21T01:43:38.728Z,5.25
2019-02-21T01:46:09.858Z,6.00
2019-02-21T01:48:40.738Z,6.20
2019-02-21T01:51:12.668Z,5.35
2019-02-21T01:53:43.549Z,5.28
2019-02-21T01:56:17.262Z,5.33
2019-02-21T01:58:48.007Z,5.78
2019-02-21T02:01:18.642Z,6.42
2019-02-21T02:03:49.235Z,6.17
2019-02-21T02:06:19.800Z,6.67
2019-02-21T02:08:50.430Z,7.33
2019-02-21T02:11:21.018Z,6.75
2019-02-21T02:13:51.689Z,7.17
2019-02-21T02:16:22.258Z,8.03
2019-02-21T02:18:54.108Z,7.47
2019-02-21T02:21:24.738Z,7.12
2019-02-21T02:23:56.928Z,7.50
2019-02-21T02:26:27.521Z,8.65
2019-02-21T02:28:58.792Z,8.65
2019-02-21T02:31:30.362Z,8.43
2019-02-21T02:34:04.016Z,9.48
2019-02-21T02:36:35.422Z,9.55
2019-02-21T02:39:06.307Z,9.73
2019-02-21T02:41:37.879Z,9.13
2019-02-21T02:44:08.546Z,9.73
2019-02-21T02:46:39.122Z,10.35
2019-02-21T02:49:11.407Z,8.98
2019-02-21T02:54:12.008Z,10.68
2019-02-21T02:56:42.691Z,10.00
2019-02-21T02:59:17.299Z,10.20
2019-02-21T03:01:47.890Z,9.13
2019-02-21T03:04:18.468Z,11.38
2019-02-21T03:06:48.997Z,10.58
2019-02-21T03:09:19.757Z,11.18
2019-02-21T03:11:52.003Z,10.90
2019-02-21T03:16:52.040Z,9.88
2019-02-21T03:19:22.657Z,10.43
2019-02-21T03:21:53.431Z,10.03
2019-02-21T03:24:24.166Z,10.38
2019-02-21T03:26:54.738Z,11.00
2019-02-21T03:29:25.379Z,10.65
2019-02-21T03:31:56.475Z,11.38
2019-02-21T03:34:35.243Z,11.20
2019-02-21T03:37:06.099Z,10.23
2019-02-21T03:39:37.380Z,11.45
2019-02-21T03:42:08.011Z,10.78
2019-02-21T03:44:40.178Z,11.18
2019-02-21T03:47:10.698Z,11.12
2019-02-21T03:49:41.275Z,10.63
2019-02-21T03:52:11.827Z,11.57
2019-02-21T03:54:42.457Z,11.35
2019-02-21T03:57:12.998Z,11.70
2019-02-21T03:59:43.482Z,11.33
2019-02-21T04:02:14.163Z,11.88
2019-02-21T04:04:44.797Z,11.93
2019-02-21T04:07:15.544Z,11.15
2019-02-21T04:09:46.136Z,10.70
2019-02-21T04:12:16.769Z,11.18
2019-02-21T04:14:47.347Z,11.53
2019-02-21T04:17:17.862Z,11.80
2019-02-21T04:19:51.338Z,10.95
2019-02-21T04:22:21.930Z,11.70
2019-02-21T04:24:52.438Z,11.55
2019-02-21T04:27:23.081Z,12.60
2019-02-21T04:29:53.627Z,11.90
2019-02-21T04:32:25.478Z,10.35
2019-02-21T04:34:56.029Z,12.93
2019-02-21T04:37:26.598Z,11.63
2019-02-21T04:39:57.130Z,11.43
2019-02-21T04:42:27.665Z,12.15
2019-02-21T04:44:58.195Z,11.25
2019-02-21T04:47:28.721Z,13.85
2019-02-21T04:49:59.280Z,12.18
2019-02-21T04:52:30.068Z,11.73
2019-02-21T04:55:00.558Z,11.22
2019-02-21T04:57:31.128Z,12.45
2019-02-21T05:00:02.329Z,12.55
2019-02-21T05:02:33.138Z,11.83
2019-02-21T05:05:03.782Z,11.93
2019-02-21T05:07:34.392Z,12.33
2019-02-21T05:10:05.207Z,11.38
2019-02-21T05:12:38.719Z,12.53
2019-02-21T05:15:09.547Z,12.90
2019-02-21T05:17:40.246Z,13.05
2019-02-21T05:20:10.916Z,13.20
2019-02-21T05:22:41.918Z,11.97
2019-02-21T05:25:17.094Z,13.48
2019-02-21T05:27:53.033Z,11.83
2019-02-21T05:30:25.454Z,13.40
2019-02-21T05:33:10.584Z,14.00
2019-02-21T05:35:59.626Z,14.18
2019-02-21T05:38:52.088Z,14.80
2019-02-21T05:41:37.327Z,12.70
2019-02-21T05:44:26.690Z,13.70
2019-02-21T05:47:08.231Z,14.93
2019-02-21T05:49:57.153Z,14.63
2019-02-21T05:52:33.078Z,13.58
2019-02-21T05:55:31.559Z,14.03
2019-02-21T05:58:15.883Z,13.15
2019-02-21T06:01:04.676Z,12.18
2019-02-21T06:03:45.527Z,12.45
2019-02-21T06:06:39.628Z,11.95
2019-02-21T06:09:24.980Z,11.48
2019-02-21T06:13:01.223Z,12.25
2019-02-21T06:16:18.109Z,12.10
2019-02-21T06:19:50.797Z,12.65
2019-02-21T06:26:16.270Z,12.88
2019-02-21T06:29:16.048Z,13.68
2019-02-21T06:31:56.392Z,14.43
2019-02-21T06:34:31.680Z,14.60
2019-02-21T06:37:28.660Z,13.03
2019-02-21T06:40:49.268Z,14.10
2019-02-21T06:43:19.457Z,13.00
2019-02-21T06:45:51.287Z,13.32
2019-02-21T06:48:22.248Z,12.68
2019-02-21T06:50:53.847Z,13.13
2019-02-21T06:53:24.388Z,12.95
2019-02-21T06:55:56.300Z,13.98
2019-02-21T06:58:31.068Z,13.18
2019-02-21T07:01:01.658Z,14.23
2019-02-21T07:03:33.986Z,13.15
2019-02-21T07:08:36.437Z,13.43
2019-02-21T07:11:08.267Z,13.40
2019-02-21T07:13:39.285Z,13.50
2019-02-21T07:16:15.687Z,13.22
2019-02-21T07:18:57.240Z,13.10
2019-02-21T07:21:27.858Z,14.93
2019-02-21T07:24:01.538Z,14.28
2019-02-21T07:26:35.639Z,15.08
2019-02-21T07:29:07.910Z,15.05
2019-02-21T07:31:41.261Z,14.20
2019-02-21T07:34:11.838Z,15.38
2019-02-21T07:37:00.328Z,13.72
2019-02-21T07:39:36.177Z,13.60
2019-02-21T07:45:18.498Z,15.18
2019-02-21T07:47:55.561Z,15.15
2019-02-21T07:50:52.760Z,14.53
2019-02-21T07:53:26.353Z,15.93
2019-02-21T07:56:42.260Z,15.15
2019-02-21T08:07:03.242Z,16.15
2019-02-21T08:09:31.806Z,16.57
2019-02-21T08:12:46.409Z,16.23
2019-02-21T08:15:37.050Z,15.70
2019-02-21T08:18:41.265Z,14.80
2019-02-21T08:22:08.478Z,15.08
2019-02-21T08:25:03.748Z,15.38
2019-02-21T08:27:56.632Z,14.30
2019-02-21T08:30:37.486Z,15.35
2019-02-21T08:36:14.286Z,14.15
2019-02-21T08:38:45.098Z,14.85
2019-02-21T08:41:21.858Z,14.33
2019-02-21T08:43:58.231Z,15.83
2019-02-21T08:46:37.770Z,15.38
2019-02-21T08:49:20.448Z,14.58
2019-02-21T08:52:08.619Z,14.25
2019-02-21T08:55:00.179Z,15.67
2019-02-21T08:57:56.580Z,14.73
2019-02-21T09:00:33.302Z,14.90
2019-02-21T09:03:44.479Z,15.78
2019-02-21T09:06:20.149Z,15.28
2019-02-21T09:08:57.878Z,15.58
2019-02-21T09:11:49.009Z,16.00
2019-02-21T09:14:23.267Z,14.40
2019-02-21T09:16:54.110Z,15.28
2019-02-21T09:19:40.768Z,14.65
2019-02-21T09:22:11.491Z,15.28
2019-02-21T09:24:42.626Z,16.10
2019-02-21T09:27:22.220Z,15.72
2019-02-21T09:30:06.506Z,14.70
2019-02-21T09:32:33.337Z,16.07
2019-02-21T09:35:09.512Z,14.50
2019-02-21T09:37:49.325Z,16.05
2019-02-21T09:40:21.027Z,15.33
2019-02-21T09:42:59.137Z,14.93
2019-02-21T09:45:32.849Z,15.50
2019-02-21T09:48:03.905Z,17.55
2019-02-21T09:50:35.629Z,14.80
2019-02-21T09:53:09.178Z,14.75
2019-02-21T09:55:42.879Z,15.63
2019-02-21T09:58:20.558Z,17.17
2019-02-21T10:01:04.658Z,17.85
2019-02-21T10:03:36.188Z,18.15
2019-02-21T10:06:11.494Z,16.27
2019-02-21T10:08:52.079Z,17.12
2019-02-21T10:11:22.817Z,15.23
2019-02-21T10:13:56.137Z,16.55
2019-02-21T10:16:26.867Z,16.02
2019-02-21T10:18:57.529Z,16.00
2019-02-21T10:21:30.299Z,15.83
2019-02-21T10:24:03.699Z,17.17
2019-02-21T10:26:34.547Z,16.40
2019-02-21T10:29:05.647Z,17.00
2019-02-21T10:31:36.797Z,15.08
2019-02-21T10:36:38.397Z,16.30
2019-02-21T10:39:09.111Z,16.65
2019-02-21T10:41:39.918Z,15.98
2019-02-21T10:44:19.814Z,15.28
2019-02-21T10:46:50.629Z,15.65
2019-02-21T10:49:23.737Z,13.90
2019-02-21T10:51:54.770Z,13.78
2019-02-21T10:54:25.577Z,13.45
2019-02-21T10:56:58.749Z,13.32
2019-02-21T10:59:29.347Z,13.30
2019-02-21T11:01:59.859Z,13.50
2019-02-21T11:04:30.513Z,12.47
2019-02-21T11:07:01.419Z,13.78
2019-02-21T11:09:32.086Z,12.45
2019-02-21T11:12:02.692Z,12.68
2019-02-21T11:14:33.352Z,11.80
2019-02-21T11:17:04.079Z,12.20
2019-02-21T11:19:34.979Z,10.82
2019-02-21T11:22:05.669Z,11.73
2019-02-21T11:24:36.302Z,10.98
2019-02-21T11:27:06.891Z,12.82
2019-02-21T11:29:37.409Z,10.93
2019-02-21T11:32:08.201Z,11.05
2019-02-21T11:34:39.157Z,10.75
2019-02-21T11:37:10.739Z,11.53
2019-02-21T11:39:41.349Z,10.68
2019-02-21T11:42:11.912Z,11.78
2019-02-21T11:44:45.827Z,11.33
2019-02-21T11:47:16.798Z,10.45
2019-02-21T11:49:47.615Z,10.63
2019-02-21T11:52:22.627Z,11.45
2019-02-21T11:54:53.467Z,10.85
2019-02-21T11:57:24.173Z,10.65
2019-02-21T11:59:57.389Z,12.18
2019-02-21T12:02:38.619Z,10.88
2019-02-21T12:05:02.418Z,10.28
2019-02-21T12:07:37.588Z,11.57
2019-02-21T12:10:10.639Z,11.08
2019-02-21T12:12:41.428Z,10.33
2019-02-21T12:15:13.600Z,12.23
2019-02-21T12:17:44.258Z,11.63
2019-02-21T12:20:15.987Z,10.90
2019-02-21T12:22:46.548Z,11.70
2019-02-21T12:25:18.387Z,11.83
2019-02-21T12:27:51.888Z,9.88
2019-02-21T12:30:22.577Z,10.55
2019-02-21T12:32:55.285Z,12.47
2019-02-21T12:35:30.272Z,11.83
2019-02-21T12:38:06.656Z,11.33
2019-02-21T12:40:40.427Z,11.50
2019-02-21T12:43:15.057Z,13.05
2019-02-21T12:45:45.897Z,11.93
2019-02-21T12:48:16.626Z,11.28
2019-02-21T12:50:48.974Z,12.73
2019-02-21T12:55:49.550Z,10.88
2019-02-21T12:58:22.114Z,12.58
2019-02-21T13:00:52.779Z,12.00
2019-02-21T13:03:23.427Z,11.68
2019-02-21T13:05:53.977Z,12.23
2019-02-21T13:08:24.557Z,12.60
2019-02-21T13:10:55.088Z,11.80
2019-02-21T13:13:25.704Z,12.05
2019-02-21T13:15:56.327Z,11.48
2019-02-21T13:18:27.010Z,11.40
2019-02-21T13:20:57.549Z,11.40
2019-02-21T13:23:28.127Z,12.05
2019-02-21T13:25:59.829Z,12.80
2019-02-21T13:28:30.468Z,11.90
2019-02-21T13:31:01.250Z,12.60
2019-02-21T13:33:31.849Z,12.58
2019-02-21T13:36:02.460Z,10.65
2019-02-21T13:38:33.059Z,10.30
2019-02-21T13:41:03.638Z,10.90
2019-02-21T13:43:34.376Z,11.43
2019-02-21T13:46:04.988Z,11.68
2019-02-21T13:48:35.557Z,12.25
2019-02-21T13:51:06.073Z,11.63
2019-02-21T13:53:36.628Z,10.48
2019-02-21T13:56:07.194Z,9.83
2019-02-21T13:58:37.711Z,9.88
2019-02-21T14:01:08.289Z,11.03
2019-02-21T14:03:38.869Z,10.28
2019-02-21T14:06:09.392Z,8.33
2019-02-21T14:08:41.059Z,7.10
2019-02-21T14:11:13.979Z,6.60
2019-02-21T14:13:44.591Z,7.47
2019-02-21T14:16:15.137Z,5.50
2019-02-21T14:18:45.693Z,6.12
2019-02-21T14:21:16.261Z,6.12
2019-02-21T14:23:46.843Z,6.37
2019-02-21T14:26:17.372Z,6.83
2019-02-21T14:28:47.999Z,7.08
2019-02-21T14:31:18.589Z,6.97
2019-02-21T14:33:51.766Z,6.78
2019-02-21T14:38:51.027Z,7.67
2019-02-21T14:41:21.657Z,7.65
2019-02-21T14:43:52.240Z,5.83
2019-02-21T14:46:23.329Z,5.70
2019-02-21T14:48:54.142Z,4.95
2019-02-21T14:51:24.725Z,4.85
2019-02-21T14:53:55.297Z,3.22
2019-02-21T14:56:25.906Z,4.22
2019-02-21T14:58:57.585Z,4.58
2019-02-21T15:01:29.078Z,4.67
2019-02-21T15:03:59.579Z,4.92
2019-02-21T15:06:30.090Z,3.47
2019-02-21T15:09:00.748Z,4.78
2019-02-21T15:11:32.867Z,4.47
2019-02-21T15:14:03.529Z,4.00
2019-02-21T15:16:34.089Z,3.98
2019-02-21T15:19:04.629Z,4.75
2019-02-21T15:21:35.193Z,6.92
2019-02-21T15:24:05.773Z,5.58
2019-02-21T15:26:36.289Z,7.62
2019-02-21T15:29:06.827Z,6.70
2019-02-21T15:31:37.427Z,6.05
2019-02-21T15:34:07.937Z,6.45
2019-02-21T15:36:38.738Z,6.00
2019-02-21T15:39:10.312Z,6.72
2019-02-21T15:41:40.858Z,7.08
2019-02-21T15:44:11.408Z,6.90
2019-02-21T15:46:41.947Z,6.67
2019-02-21T15:49:12.512Z,6.22
2019-02-21T15:51:43.009Z,8.60
2019-02-21T15:54:13.597Z,7.40
2019-02-21T15:56:44.167Z,7.53
2019-02-21T15:59:14.819Z,5.95
2019-02-21T16:01:47.774Z,6.03
2019-02-21T16:04:17.924Z,7.67
2019-02-21T16:06:52.027Z,6.17
2019-02-21T16:09:25.186Z,6.87
2019-02-21T16:14:32.669Z,6.65
2019-02-21T16:17:03.260Z,4.95
2019-02-21T16:19:34.128Z,5.87
2019-02-21T16:22:06.889Z,6.95
2019-02-21T16:24:37.937Z,6.30
2019-02-21T16:27:08.809Z,6.45
2019-02-21T16:29:46.141Z,6.62
2019-02-21T16:32:18.596Z,8.18
2019-02-21T16:34:49.657Z,7.90
2019-02-21T16:39:55.199Z,9.20
2019-02-21T16:42:25.888Z,9.23
2019-02-21T16:44:56.349Z,9.58
2019-02-21T16:47:26.991Z,8.83
2019-02-21T16:49:58.395Z,9.43
2019-02-21T16:52:28.990Z,9.58
2019-02-21T16:54:59.503Z,9.28
2019-02-21T16:57:30.137Z,9.93
2019-02-21T17:00:00.711Z,9.75
2019-02-21T17:02:31.768Z,9.63
2019-02-21T17:05:02.320Z,9.53
2019-02-21T17:07:32.909Z,9.08
2019-02-21T17:10:04.085Z,9.35
2019-02-21T17:12:37.057Z,14.35
2019-02-21T17:15:09.228Z,10.05
2019-02-21T17:17:40.298Z,11.93
2019-02-21T17:20:12.370Z,9.38
2019-02-21T17:22:42.989Z,10.03
2019-02-21T17:25:13.981Z,9.85
2019-02-21T17:27:44.630Z,9.75
2019-02-21T17:30:16.478Z,10.58
2019-02-21T17:32:47.407Z,10.32
2019-02-21T17:35:19.817Z,8.68
2019-02-21T17:40:20.714Z,9.23
2019-02-21T17:42:51.320Z,8.87
2019-02-21T17:45:21.901Z,8.45
2019-02-21T17:47:52.809Z,9.13
2019-02-21T17:50:26.479Z,8.75
2019-02-21T17:52:57.379Z,8.28
2019-02-21T17:55:27.991Z,8.55
2019-02-21T17:57:58.857Z,8.05
2019-02-21T18:00:35.258Z,7.58
2019-02-21T18:03:06.389Z,7.22
2019-02-21T18:05:37.169Z,7.35
2019-02-21T18:08:07.788Z,7.17
2019-02-21T18:10:38.389Z,7.42
2019-02-21T18:13:08.949Z,7.55
2019-02-21T18:15:39.619Z,7.33
2019-02-21T18:18:10.229Z,8.23
2019-02-21T18:20:40.890Z,8.15
2019-02-21T18:23:12.519Z,7.62
2019-02-21T18:25:47.788Z,8.05
2019-02-21T18:28:18.389Z,9.30
2019-02-21T18:30:49.099Z,8.40
2019-02-21T18:33:19.821Z,7.87
2019-02-21T18:35:53.246Z,8.35
2019-02-21T18:38:25.220Z,8.13
2019-02-21T18:40:58.327Z,9.25
2019-02-21T18:43:30.908Z,9.38
2019-02-21T18:46:04.029Z,10.23
2019-02-21T18:48:34.833Z,10.10
2019-02-21T18:51:15.227Z,10.18
2019-02-21T18:53:47.320Z,12.07
2019-02-21T18:56:20.705Z,11.85
2019-02-21T18:58:53.168Z,12.23
2019-02-21T19:01:26.389Z,12.43
2019-02-21T19:03:56.937Z,11.97
2019-02-21T19:06:33.827Z,12.95
2019-02-21T19:09:08.758Z,13.18
2019-02-21T19:11:40.234Z,14.03
2019-02-21T19:14:10.869Z,13.58
2019-02-21T19:16:41.504Z,14.15
2019-02-21T19:19:12.039Z,13.38
2019-02-21T19:21:42.590Z,14.28
2019-02-21T19:24:13.188Z,14.80
2019-02-21T19:26:43.809Z,14.05
2019-02-21T19:29:14.378Z,13.68
2019-02-21T19:31:44.981Z,13.10
2019-02-21T19:34:16.465Z,13.80
2019-02-21T19:36:47.170Z,14.33
2019-02-21T19:39:17.762Z,13.80
2019-02-21T19:41:48.408Z,13.25
2019-02-21T19:44:18.877Z,13.85
2019-02-21T19:46:49.473Z,14.23
2019-02-21T19:49:19.978Z,12.82
2019-02-21T19:51:50.700Z,14.47
2019-02-21T19:54:21.499Z,14.73
2019-02-21T19:56:52.041Z,15.35
2019-02-21T19:59:22.669Z,13.25
2019-02-21T20:01:55.902Z,14.55
2019-02-21T20:04:27.149Z,15.32
2019-02-21T20:06:57.999Z,13.98
2019-02-21T20:09:29.580Z,14.18
2019-02-21T20:12:05.989Z,14.30
2019-02-21T20:14:39.467Z,13.93
2019-02-21T20:17:19.968Z,14.75
2019-02-21T20:20:23.826Z,12.82
2019-02-21T20:22:54.429Z,14.40
2019-02-21T20:25:24.982Z,14.28
2019-02-21T20:27:57.120Z,13.32
2019-02-21T20:30:27.748Z,11.93
2019-02-21T20:32:58.269Z,12.88
2019-02-21T20:35:28.850Z,13.00
2019-02-21T20:37:59.431Z,13.88
2019-02-21T20:40:29.929Z,12.78
2019-02-21T20:43:00.648Z,14.35
2019-02-21T20:45:31.295Z,16.17
2019-02-21T20:48:01.825Z,16.02
2019-02-21T20:50:32.411Z,13.48
2019-02-21T20:53:05.328Z,14.28
2019-02-21T20:55:43.425Z,13.38
2019-02-21T21:00:38.213Z,12.45
2019-02-21T21:03:16.521Z,13.15
2019-02-21T21:05:50.077Z,13.05
2019-02-21T21:08:21.276Z,11.43
2019-02-21T21:10:51.966Z,11.97
2019-02-21T21:13:22.788Z,11.97
2019-02-21T21:15:53.719Z,11.40
2019-02-21T21:18:24.307Z,11.80
2019-02-21T21:20:54.837Z,12.35
2019-02-21T21:23:25.387Z,12.75
2019-02-21T21:25:55.929Z,12.60
2019-02-21T21:28:26.417Z,11.45
2019-02-21T21:31:00.137Z,10.78
2019-02-21T21:33:30.727Z,11.65
2019-02-21T21:36:02.856Z,11.30
2019-02-21T21:38:36.130Z,13.53
2019-02-21T21:41:06.757Z,12.35
2019-02-21T21:43:49.048Z,13.20
2019-02-21T21:46:19.587Z,14.85
2019-02-21T21:48:50.030Z,11.10
2019-02-21T21:51:20.839Z,11.10
2019-02-21T21:53:51.306Z,15.08
2019-02-21T21:56:21.835Z,14.50
2019-02-21T21:58:52.299Z,11.08
2019-02-21T22:01:22.809Z,10.70
2019-02-21T22:03:53.342Z,13.00
2019-02-21T22:06:23.847Z,12.33
2019-02-21T22:09:04.176Z,10.38
2019-02-21T22:14:08.077Z,11.50
2019-02-21T22:16:42.351Z,12.37
2019-02-21T22:19:28.648Z,11.97
2019-02-21T22:21:59.188Z,12.40
2019-02-21T22:24:29.749Z,13.85
2019-02-21T22:27:38.929Z,13.50
2019-02-21T22:30:13.983Z,9.93
2019-02-21T22:36:37.072Z,9.63
2019-02-21T22:39:30.853Z,9.88
2019-02-21T22:42:01.457Z,9.15
2019-02-21T22:44:31.949Z,10.82
2019-02-21T22:47:02.428Z,9.23
2019-02-21T22:49:32.927Z,8.98
2019-02-21T22:52:03.463Z,8.45
2019-02-21T22:54:34.021Z,7.10
2019-02-21T22:57:04.537Z,5.85
2019-02-21T22:59:35.156Z,5.42
2019-02-21T23:02:05.750Z,5.62
2019-02-21T23:05:22.341Z,5.30
2019-02-21T23:07:58.489Z,5.50
2019-02-21T23:10:29.009Z,4.97
2019-02-21T23:12:59.650Z,5.70
2019-02-21T23:15:30.224Z,5.55
2019-02-21T23:18:00.767Z,4.97
2019-02-21T23:20:31.409Z,5.60
2019-02-21T23:23:05.147Z,4.80
2019-02-21T23:25:35.658Z,4.72
2019-02-21T23:28:06.187Z,4.40
2019-02-21T23:30:36.817Z,3.58
2019-02-21T23:33:07.353Z,3.15
2019-02-21T23:35:37.979Z,3.65
2019-02-21T23:38:08.938Z,3.45
2019-02-21T23:40:39.566Z,2.70
2019-02-21T23:43:10.242Z,2.80
2019-02-21T23:45:40.764Z,2.85
2019-02-21T23:48:11.327Z,2.45
2019-02-21T23:50:41.850Z,2.80
2019-02-21T23:53:12.517Z,2.55
2019-02-21T23:55:43.105Z,3.00
2019-02-21T23:58:13.599Z,2.92
